首页
METAR-TAF:

METAR-TAF

机场 :

Crystal Airport

明尼阿波利斯 / Crystal, 明尼蘇達州, 美国

纬度: 45-03-45N, 经度: 093-21-03W, 海拔: 264米

当前天气观测

该预报发布于37分钟前的20:53 UTC
风速5节,风向
温度 26°C
湿度 39%
气压 1017 hPa
能見度: 16.1公里
少量云层高于6500英尺

METAR: KMIC 142053Z 35005KT 10SM FEW065 26/11 A3003 RMK AO2 SLP167 T02560106 58012

时间: 16:30 (21:30 UTC)


TAF: 丢失

超过4000个机场的气象观测和天气预报(METAR&TAF报告)。

可查询的气象台以黄色和红色小点在地图上表示。

将鼠标移到小点上方,可查看气象台名称。

然后点击查看天气观测和预报。

如需切换地图:点击带黑十字的绿色按钮放大地图;点击带横线的绿色按钮缩小地图;或者点击绿色箭头查看邻近地区的地图。


METAR-TAF: